sensor_id;sensor_type;location;lat;lon;timestamp;temperature;humidity
23685;DHT22;12020;51.384;6.908;2023-03-01T00:01:18;0.00;99.90
23685;DHT22;12020;51.384;6.908;2023-03-01T00:03:48;0.00;99.90
23685;DHT22;12020;51.384;6.908;2023-03-01T00:06:20;0.00;99.90
23685;DHT22;12020;51.384;6.908;2023-03-01T00:08:49;0.00;99.90
23685;DHT22;12020;51.384;6.908;2023-03-01T00:11:21;0.00;99.90
23685;DHT22;12020;51.384;6.908;2023-03-01T00:13:51;-0.10;99.90
23685;DHT22;12020;51.384;6.908;2023-03-01T00:16:21;-0.10;99.90
23685;DHT22;12020;51.384;6.908;2023-03-01T00:18:47;-0.10;99.90
23685;DHT22;12020;51.384;6.908;2023-03-01T00:21:13;-0.10;99.90
23685;DHT22;12020;51.384;6.908;2023-03-01T00:23:39;-0.10;99.90
23685;DHT22;12020;51.384;6.908;2023-03-01T00:26:10;-0.10;99.90
23685;DHT22;12020;51.384;6.908;2023-03-01T00:28:43;-0.20;99.90
23685;DHT22;12020;51.384;6.908;2023-03-01T00:31:13;-0.20;99.90
23685;DHT22;12020;51.384;6.908;2023-03-01T00:33:42;-0.20;99.90
23685;DHT22;12020;51.384;6.908;2023-03-01T00:36:10;-0.20;99.90
23685;DHT22;12020;51.384;6.908;2023-03-01T00:38:38;-0.20;99.90
23685;DHT22;12020;51.384;6.908;2023-03-01T00:41:15;-0.30;99.90
23685;DHT22;12020;51.384;6.908;2023-03-01T00:43:44;-0.30;99.90
23685;DHT22;12020;51.384;6.908;2023-03-01T00:46:15;-0.30;99.90
23685;DHT22;12020;51.384;6.908;2023-03-01T00:48:41;-0.40;99.90
23685;DHT22;12020;51.384;6.908;2023-03-01T00:51:15;-0.40;99.90
23685;DHT22;12020;51.384;6.908;2023-03-01T00:53:42;-0.40;99.90
23685;DHT22;12020;51.384;6.908;2023-03-01T00:56:13;-0.40;99.90
23685;DHT22;12020;51.384;6.908;2023-03-01T00:58:41;-0.30;99.90
23685;DHT22;12020;51.384;6.908;2023-03-01T01:01:16;-0.40;99.90
23685;DHT22;12020;51.384;6.908;2023-03-01T01:03:47;-0.50;99.90
23685;DHT22;12020;51.384;6.908;2023-03-01T01:08:54;-0.50;99.90
23685;DHT22;12020;51.384;6.908;2023-03-01T01:11:23;-0.50;99.90
23685;DHT22;12020;51.384;6.908;2023-03-01T01:13:52;-0.60;99.90
23685;DHT22;12020;51.384;6.908;2023-03-01T01:16:20;-0.60;99.90
23685;DHT22;12020;51.384;6.908;2023-03-01T01:18:48;-0.70;99.90
23685;DHT22;12020;51.384;6.908;2023-03-01T01:21:17;-0.70;99.90
23685;DHT22;12020;51.384;6.908;2023-03-01T01:23:46;-0.70;99.90
23685;DHT22;12020;51.384;6.908;2023-03-01T01:28:43;-0.70;99.90
23685;DHT22;12020;51.384;6.908;2023-03-01T01:31:12;-0.70;99.90
23685;DHT22;12020;51.384;6.908;2023-03-01T01:33:37;-0.80;99.90
23685;DHT22;12020;51.384;6.908;2023-03-01T01:36:10;-0.80;99.90
23685;DHT22;12020;51.384;6.908;2023-03-01T01:38:38;-0.80;99.90
23685;DHT22;12020;51.384;6.908;2023-03-01T01:41:11;-0.80;99.90
23685;DHT22;12020;51.384;6.908;2023-03-01T01:46:33;-0.80;99.90
23685;DHT22;12020;51.384;6.908;2023-03-01T01:49:11;-0.90;99.90
23685;DHT22;12020;51.384;6.908;2023-03-01T01:51:45;-0.90;99.90
23685;DHT22;12020;51.384;6.908;2023-03-01T01:54:27;-0.90;99.90
23685;DHT22;12020;51.384;6.908;2023-03-01T01:57:00;-0.90;99.90
23685;DHT22;12020;51.384;6.908;2023-03-01T01:59:29;-0.90;99.90
23685;DHT22;12020;51.384;6.908;2023-03-01T02:01:59;-0.90;99.90
23685;DHT22;12020;51.384;6.908;2023-03-01T02:04:26;-1.00;99.90
23685;DHT22;12020;51.384;6.908;2023-03-01T02:07:01;-1.10;99.90
23685;DHT22;12020;51.384;6.908;2023-03-01T02:09:32;-1.10;99.90
23685;DHT22;12020;51.384;6.908;2023-03-01T02:11:59;-1.20;99.90
23685;DHT22;12020;51.384;6.908;2023-03-01T02:14:26;-1.20;99.90
23685;DHT22;12020;51.384;6.908;2023-03-01T02:16:56;-1.20;99.90
23685;DHT22;12020;51.384;6.908;2023-03-01T02:22:27;-1.20;99.90
23685;DHT22;12020;51.384;6.908;2023-03-01T02:30:25;-1.40;99.90
23685;DHT22;12020;51.384;6.908;2023-03-01T02:32:52;-1.40;99.90
23685;DHT22;12020;51.384;6.908;2023-03-01T02:35:19;-1.40;99.90
23685;DHT22;12020;51.384;6.908;2023-03-01T02:37:47;-1.50;99.90
23685;DHT22;12020;51.384;6.908;2023-03-01T02:40:17;-1.50;99.90
23685;DHT22;12020;51.384;6.908;2023-03-01T02:42:54;-1.40;99.90
23685;DHT22;12020;51.384;6.908;2023-03-01T02:45:22;-1.40;99.90
23685;DHT22;12020;51.384;6.908;2023-03-01T02:47:49;-1.40;99.90
23685;DHT22;12020;51.384;6.908;2023-03-01T02:55:45;-1.40;99.90
23685;DHT22;12020;51.384;6.908;2023-03-01T02:58:12;-1.30;99.90
23685;DHT22;12020;51.384;6.908;2023-03-01T03:00:41;-1.40;99.90
23685;DHT22;12020;51.384;6.908;2023-03-01T03:03:16;-1.40;99.90
23685;DHT22;12020;51.384;6.908;2023-03-01T03:05:42;-1.40;99.90
23685;DHT22;12020;51.384;6.908;2023-03-01T03:08:08;-1.40;99.90
23685;DHT22;12020;51.384;6.908;2023-03-01T03:10:37;-1.40;99.90
23685;DHT22;12020;51.384;6.908;2023-03-01T03:13:08;-1.50;99.90
23685;DHT22;12020;51.384;6.908;2023-03-01T03:15:34;-1.50;99.90
23685;DHT22;12020;51.384;6.908;2023-03-01T03:18:13;-1.50;99.90
23685;DHT22;12020;51.384;6.908;2023-03-01T03:20:42;-1.50;99.90
23685;DHT22;12020;51.384;6.908;2023-03-01T03:23:08;-1.50;99.90
23685;DHT22;12020;51.384;6.908;2023-03-01T03:25:35;-1.50;99.90
23685;DHT22;12020;51.384;6.908;2023-03-01T03:28:04;-1.50;99.90
23685;DHT22;12020;51.384;6.908;2023-03-01T03:30:37;-1.50;99.90
23685;DHT22;12020;51.384;6.908;2023-03-01T03:33:10;-1.50;99.90
23685;DHT22;12020;51.384;6.908;2023-03-01T03:35:48;-1.60;99.90
23685;DHT22;12020;51.384;6.908;2023-03-01T03:38:18;-1.50;99.90
23685;DHT22;12020;51.384;6.908;2023-03-01T03:40:50;-1.50;99.90
23685;DHT22;12020;51.384;6.908;2023-03-01T03:43:22;-1.50;99.90
23685;DHT22;12020;51.384;6.908;2023-03-01T03:45:51;-1.50;99.90
23685;DHT22;12020;51.384;6.908;2023-03-01T03:48:17;-1.50;99.90
23685;DHT22;12020;51.384;6.908;2023-03-01T03:50:52;-1.50;99.90
23685;DHT22;12020;51.384;6.908;2023-03-01T03:53:27;-1.60;99.90
23685;DHT22;12020;51.384;6.908;2023-03-01T03:55:55;-1.60;99.90
23685;DHT22;12020;51.384;6.908;2023-03-01T03:58:24;-1.60;99.90
23685;DHT22;12020;51.384;6.908;2023-03-01T04:00:55;-1.70;99.90
23685;DHT22;12020;51.384;6.908;2023-03-01T04:03:23;-1.70;99.90
23685;DHT22;12020;51.384;6.908;2023-03-01T04:05:52;-1.80;99.90
23685;DHT22;12020;51.384;6.908;2023-03-01T04:08:19;-1.80;99.90
23685;DHT22;12020;51.384;6.908;2023-03-01T04:10:49;-1.80;99.90
23685;DHT22;12020;51.384;6.908;2023-03-01T04:13:19;-1.90;99.90
23685;DHT22;12020;51.384;6.908;2023-03-01T04:15:51;-1.90;99.90
23685;DHT22;12020;51.384;6.908;2023-03-01T04:18:19;-1.90;99.90
23685;DHT22;12020;51.384;6.908;2023-03-01T04:20:45;-1.90;99.90
23685;DHT22;12020;51.384;6.908;2023-03-01T04:23:18;-1.90;99.90
23685;DHT22;12020;51.384;6.908;2023-03-01T04:25:56;-1.80;99.90
23685;DHT22;12020;51.384;6.908;2023-03-01T04:28:23;-1.80;99.90
23685;DHT22;12020;51.384;6.908;2023-03-01T04:30:54;-1.80;99.90
23685;DHT22;12020;51.384;6.908;2023-03-01T04:33:21;-1.90;99.90
23685;DHT22;12020;51.384;6.908;2023-03-01T04:35:49;-1.90;99.90
23685;DHT22;12020;51.384;6.908;2023-03-01T04:38:17;-1.80;99.90
23685;DHT22;12020;51.384;6.908;2023-03-01T04:40:43;-1.80;99.90
23685;DHT22;12020;51.384;6.908;2023-03-01T04:43:13;-1.80;99.90
23685;DHT22;12020;51.384;6.908;2023-03-01T04:45:40;-1.90;99.90
23685;DHT22;12020;51.384;6.908;2023-03-01T04:48:11;-1.90;99.90
23685;DHT22;12020;51.384;6.908;2023-03-01T04:50:37;-1.90;99.90
23685;DHT22;12020;51.384;6.908;2023-03-01T04:53:08;-1.90;99.90
23685;DHT22;12020;51.384;6.908;2023-03-01T04:55:34;-1.90;99.90
23685;DHT22;12020;51.384;6.908;2023-03-01T04:57:59;-1.90;99.90
23685;DHT22;12020;51.384;6.908;2023-03-01T05:00:25;-1.90;99.90
23685;DHT22;12020;51.384;6.908;2023-03-01T05:03:00;-2.00;99.90
23685;DHT22;12020;51.384;6.908;2023-03-01T05:05:29;-2.00;99.90
23685;DHT22;12020;51.384;6.908;2023-03-01T05:07:56;-2.00;99.90
23685;DHT22;12020;51.384;6.908;2023-03-01T05:10:28;-1.90;99.90
23685;DHT22;12020;51.384;6.908;2023-03-01T05:12:58;-1.90;99.90
23685;DHT22;12020;51.384;6.908;2023-03-01T05:15:28;-2.00;99.90
23685;DHT22;12020;51.384;6.908;2023-03-01T05:17:56;-1.90;99.90
23685;DHT22;12020;51.384;6.908;2023-03-01T05:20:28;-1.90;99.90
23685;DHT22;12020;51.384;6.908;2023-03-01T05:22:58;-1.90;99.90
23685;DHT22;12020;51.384;6.908;2023-03-01T05:25:26;-1.90;99.90
23685;DHT22;12020;51.384;6.908;2023-03-01T05:27:54;-2.00;99.90
23685;DHT22;12020;51.384;6.908;2023-03-01T05:30:21;-2.00;99.90
23685;DHT22;12020;51.384;6.908;2023-03-01T05:32:50;-2.00;99.90
23685;DHT22;12020;51.384;6.908;2023-03-01T05:35:27;-1.90;99.90
23685;DHT22;12020;51.384;6.908;2023-03-01T05:37:54;-2.00;99.90
23685;DHT22;12020;51.384;6.908;2023-03-01T05:40:22;-2.00;99.90
23685;DHT22;12020;51.384;6.908;2023-03-01T05:42:54;-2.00;99.90
23685;DHT22;12020;51.384;6.908;2023-03-01T05:45:23;-2.00;99.90
23685;DHT22;12020;51.384;6.908;2023-03-01T05:47:50;-2.00;99.90
23685;DHT22;12020;51.384;6.908;2023-03-01T05:50:26;-2.00;99.90
23685;DHT22;12020;51.384;6.908;2023-03-01T05:52:59;-2.00;99.90
23685;DHT22;12020;51.384;6.908;2023-03-01T05:55:25;-2.00;99.90
23685;DHT22;12020;51.384;6.908;2023-03-01T05:57:52;-2.00;99.90
23685;DHT22;12020;51.384;6.908;2023-03-01T06:00:19;-2.00;99.90
23685;DHT22;12020;51.384;6.908;2023-03-01T06:02:47;-2.00;99.90
23685;DHT22;12020;51.384;6.908;2023-03-01T06:05:13;-2.00;99.90
23685;DHT22;12020;51.384;6.908;2023-03-01T06:07:40;-2.10;99.90
23685;DHT22;12020;51.384;6.908;2023-03-01T06:10:07;-2.00;99.90
23685;DHT22;12020;51.384;6.908;2023-03-01T06:12:35;-2.00;99.90
23685;DHT22;12020;51.384;6.908;2023-03-01T06:15:01;-2.00;99.90
23685;DHT22;12020;51.384;6.908;2023-03-01T06:17:29;-1.90;99.90
23685;DHT22;12020;51.384;6.908;2023-03-01T06:19:56;-1.80;99.90
23685;DHT22;12020;51.384;6.908;2023-03-01T06:22:21;-1.80;99.90
23685;DHT22;12020;51.384;6.908;2023-03-01T06:24:47;-1.80;99.90
23685;DHT22;12020;51.384;6.908;2023-03-01T06:27:13;-1.90;99.90
23685;DHT22;12020;51.384;6.908;2023-03-01T06:29:38;-1.90;99.90
23685;DHT22;12020;51.384;6.908;2023-03-01T06:32:04;-1.90;99.90
23685;DHT22;12020;51.384;6.908;2023-03-01T06:34:30;-1.90;99.90
23685;DHT22;12020;51.384;6.908;2023-03-01T06:36:55;-1.90;99.90
23685;DHT22;12020;51.384;6.908;2023-03-01T06:39:21;-1.90;99.90
23685;DHT22;12020;51.384;6.908;2023-03-01T06:41:47;-1.90;99.90
23685;DHT22;12020;51.384;6.908;2023-03-01T06:44:12;-1.90;99.90
23685;DHT22;12020;51.384;6.908;2023-03-01T06:46:39;-1.90;99.90
23685;DHT22;12020;51.384;6.908;2023-03-01T06:49:06;-2.00;99.90
23685;DHT22;12020;51.384;6.908;2023-03-01T06:51:35;-2.00;99.90
23685;DHT22;12020;51.384;6.908;2023-03-01T06:54:02;-1.90;99.90
23685;DHT22;12020;51.384;6.908;2023-03-01T06:56:28;-1.90;99.90
23685;DHT22;12020;51.384;6.908;2023-03-01T06:58:53;-1.80;99.90
23685;DHT22;12020;51.384;6.908;2023-03-01T07:01:19;-1.80;99.90
23685;DHT22;12020;51.384;6.908;2023-03-01T07:03:45;-1.80;99.90
23685;DHT22;12020;51.384;6.908;2023-03-01T07:06:10;-1.70;99.90
23685;DHT22;12020;51.384;6.908;2023-03-01T07:08:36;-1.70;99.90
23685;DHT22;12020;51.384;6.908;2023-03-01T07:11:01;-1.60;99.90
23685;DHT22;12020;51.384;6.908;2023-03-01T07:13:28;-1.60;99.90
23685;DHT22;12020;51.384;6.908;2023-03-01T07:15:54;-1.50;99.90
23685;DHT22;12020;51.384;6.908;2023-03-01T07:18:20;-1.40;99.90
23685;DHT22;12020;51.384;6.908;2023-03-01T07:20:45;-1.40;99.90
23685;DHT22;12020;51.384;6.908;2023-03-01T07:23:11;-1.40;99.90
23685;DHT22;12020;51.384;6.908;2023-03-01T07:25:37;-1.30;99.90
23685;DHT22;12020;51.384;6.908;2023-03-01T07:28:03;-1.30;99.90
23685;DHT22;12020;51.384;6.908;2023-03-01T07:30:29;-1.30;99.90
23685;DHT22;12020;51.384;6.908;2023-03-01T07:32:56;-1.20;99.90
23685;DHT22;12020;51.384;6.908;2023-03-01T07:35:24;-1.20;99.90
23685;DHT22;12020;51.384;6.908;2023-03-01T07:37:51;-1.20;99.90
23685;DHT22;12020;51.384;6.908;2023-03-01T07:40:16;-1.10;99.90
23685;DHT22;12020;51.384;6.908;2023-03-01T07:42:42;-1.10;99.90
23685;DHT22;12020;51.384;6.908;2023-03-01T07:45:08;-1.20;99.90
23685;DHT22;12020;51.384;6.908;2023-03-01T07:47:35;-1.10;99.90
23685;DHT22;12020;51.384;6.908;2023-03-01T07:50:00;-1.10;99.90
23685;DHT22;12020;51.384;6.908;2023-03-01T07:52:28;-1.10;99.90
23685;DHT22;12020;51.384;6.908;2023-03-01T07:54:53;-1.00;99.90
23685;DHT22;12020;51.384;6.908;2023-03-01T07:57:19;-1.00;99.90
23685;DHT22;12020;51.384;6.908;2023-03-01T07:59:45;-0.90;99.90
23685;DHT22;12020;51.384;6.908;2023-03-01T08:02:11;-0.80;99.90
23685;DHT22;12020;51.384;6.908;2023-03-01T08:04:37;-0.80;99.90
23685;DHT22;12020;51.384;6.908;2023-03-01T08:07:05;-0.70;99.90
23685;DHT22;12020;51.384;6.908;2023-03-01T08:09:30;-0.60;99.90
23685;DHT22;12020;51.384;6.908;2023-03-01T08:11:57;-0.60;99.90
23685;DHT22;12020;51.384;6.908;2023-03-01T08:14:25;-0.50;99.90
23685;DHT22;12020;51.384;6.908;2023-03-01T08:16:50;-0.40;99.90
23685;DHT22;12020;51.384;6.908;2023-03-01T08:19:16;-0.20;99.90
23685;DHT22;12020;51.384;6.908;2023-03-01T08:21:42;-0.10;99.90
23685;DHT22;12020;51.384;6.908;2023-03-01T08:24:08;0.30;99.90
23685;DHT22;12020;51.384;6.908;2023-03-01T08:26:35;0.20;99.90
23685;DHT22;12020;51.384;6.908;2023-03-01T08:29:01;0.30;99.90
23685;DHT22;12020;51.384;6.908;2023-03-01T08:31:34;0.40;99.90
23685;DHT22;12020;51.384;6.908;2023-03-01T08:34:13;0.50;99.90
23685;DHT22;12020;51.384;6.908;2023-03-01T08:36:39;0.60;99.90
23685;DHT22;12020;51.384;6.908;2023-03-01T08:39:06;0.70;99.90
23685;DHT22;12020;51.384;6.908;2023-03-01T08:41:32;0.80;99.90
23685;DHT22;12020;51.384;6.908;2023-03-01T08:43:57;0.90;99.90
23685;DHT22;12020;51.384;6.908;2023-03-01T08:46:27;1.00;99.90
23685;DHT22;12020;51.384;6.908;2023-03-01T08:48:53;1.10;99.90
23685;DHT22;12020;51.384;6.908;2023-03-01T08:51:19;1.20;99.90
23685;DHT22;12020;51.384;6.908;2023-03-01T08:53:45;1.30;99.90
23685;DHT22;12020;51.384;6.908;2023-03-01T08:56:10;1.40;99.90
23685;DHT22;12020;51.384;6.908;2023-03-01T08:58:36;1.60;99.90
23685;DHT22;12020;51.384;6.908;2023-03-01T09:01:09;1.70;99.90
23685;DHT22;12020;51.384;6.908;2023-03-01T09:03:37;1.80;99.90
23685;DHT22;12020;51.384;6.908;2023-03-01T09:06:03;2.00;99.90
23685;DHT22;12020;51.384;6.908;2023-03-01T09:08:29;2.10;99.90
23685;DHT22;12020;51.384;6.908;2023-03-01T09:10:54;2.30;99.90
23685;DHT22;12020;51.384;6.908;2023-03-01T09:13:20;2.50;99.90
23685;DHT22;12020;51.384;6.908;2023-03-01T09:15:46;2.70;99.90
23685;DHT22;12020;51.384;6.908;2023-03-01T09:18:11;2.90;99.90
23685;DHT22;12020;51.384;6.908;2023-03-01T09:20:37;3.00;99.90
23685;DHT22;12020;51.384;6.908;2023-03-01T09:23:02;3.40;99.90
23685;DHT22;12020;51.384;6.908;2023-03-01T09:25:28;3.60;99.90
23685;DHT22;12020;51.384;6.908;2023-03-01T09:27:54;3.80;99.90
23685;DHT22;12020;51.384;6.908;2023-03-01T09:30:20;3.90;99.90
23685;DHT22;12020;51.384;6.908;2023-03-01T09:32:45;4.10;99.90
23685;DHT22;12020;51.384;6.908;2023-03-01T09:35:12;4.20;99.90
23685;DHT22;12020;51.384;6.908;2023-03-01T09:37:37;4.40;99.90
23685;DHT22;12020;51.384;6.908;2023-03-01T09:40:07;4.50;99.90
23685;DHT22;12020;51.384;6.908;2023-03-01T09:42:35;4.60;99.90
23685;DHT22;12020;51.384;6.908;2023-03-01T09:45:10;4.80;99.90
23685;DHT22;12020;51.384;6.908;2023-03-01T09:47:37;5.00;99.90
23685;DHT22;12020;51.384;6.908;2023-03-01T09:52:41;5.30;99.90
23685;DHT22;12020;51.384;6.908;2023-03-01T09:55:08;5.40;99.90
23685;DHT22;12020;51.384;6.908;2023-03-01T09:57:43;5.50;99.90
23685;DHT22;12020;51.384;6.908;2023-03-01T10:00:18;5.60;99.90
23685;DHT22;12020;51.384;6.908;2023-03-01T10:10:34;6.10;99.90
23685;DHT22;12020;51.384;6.908;2023-03-01T10:13:08;6.30;99.90
23685;DHT22;12020;51.384;6.908;2023-03-01T10:15:38;6.40;99.90
23685;DHT22;12020;51.384;6.908;2023-03-01T10:18:12;6.40;99.90
23685;DHT22;12020;51.384;6.908;2023-03-01T10:23:09;6.70;99.90
23685;DHT22;12020;51.384;6.908;2023-03-01T10:25:43;6.80;99.90
23685;DHT22;12020;51.384;6.908;2023-03-01T10:30:38;6.80;99.90
23685;DHT22;12020;51.384;6.908;2023-03-01T10:33:16;6.90;99.90
23685;DHT22;12020;51.384;6.908;2023-03-01T10:35:42;7.00;99.90
23685;DHT22;12020;51.384;6.908;2023-03-01T10:38:11;7.10;99.90
23685;DHT22;12020;51.384;6.908;2023-03-01T10:40:49;7.30;99.90
23685;DHT22;12020;51.384;6.908;2023-03-01T10:43:15;7.50;99.90
23685;DHT22;12020;51.384;6.908;2023-03-01T10:45:40;7.50;99.90
23685;DHT22;12020;51.384;6.908;2023-03-01T10:50:32;7.60;99.90
23685;DHT22;12020;51.384;6.908;2023-03-01T10:52:59;7.60;99.90
23685;DHT22;12020;51.384;6.908;2023-03-01T10:55:33;7.60;99.90
23685;DHT22;12020;51.384;6.908;2023-03-01T10:58:07;7.70;99.90
23685;DHT22;12020;51.384;6.908;2023-03-01T11:00:33;7.80;99.90
23685;DHT22;12020;51.384;6.908;2023-03-01T11:03:11;7.90;99.90
23685;DHT22;12020;51.384;6.908;2023-03-01T11:05:37;7.90;99.90
23685;DHT22;12020;51.384;6.908;2023-03-01T11:08:14;7.90;99.90
23685;DHT22;12020;51.384;6.908;2023-03-01T11:10:40;7.90;99.90
23685;DHT22;12020;51.384;6.908;2023-03-01T11:13:14;7.80;99.90
23685;DHT22;12020;51.384;6.908;2023-03-01T11:15:40;7.70;99.90
23685;DHT22;12020;51.384;6.908;2023-03-01T11:18:05;7.60;99.90
23685;DHT22;12020;51.384;6.908;2023-03-01T11:20:43;7.70;99.90
23685;DHT22;12020;51.384;6.908;2023-03-01T11:23:10;7.70;99.90
23685;DHT22;12020;51.384;6.908;2023-03-01T11:25:37;7.70;99.90
23685;DHT22;12020;51.384;6.908;2023-03-01T11:28:04;7.70;99.90
23685;DHT22;12020;51.384;6.908;2023-03-01T11:30:40;7.60;99.90
23685;DHT22;12020;51.384;6.908;2023-03-01T11:36:03;7.50;99.90
23685;DHT22;12020;51.384;6.908;2023-03-01T11:38:32;7.40;99.90
23685;DHT22;12020;51.384;6.908;2023-03-01T11:46:22;7.30;99.90
23685;DHT22;12020;51.384;6.908;2023-03-01T11:48:56;7.30;99.90
23685;DHT22;12020;51.384;6.908;2023-03-01T11:51:25;7.30;99.90
23685;DHT22;12020;51.384;6.908;2023-03-01T11:54:01;7.20;99.90
23685;DHT22;12020;51.384;6.908;2023-03-01T11:56:31;7.10;99.90
23685;DHT22;12020;51.384;6.908;2023-03-01T12:06:50;6.90;99.90
23685;DHT22;12020;51.384;6.908;2023-03-01T12:22:29;6.70;99.90
23685;DHT22;12020;51.384;6.908;2023-03-01T12:32:41;6.70;99.90
23685;DHT22;12020;51.384;6.908;2023-03-01T12:48:31;6.60;99.90
23685;DHT22;12020;51.384;6.908;2023-03-01T12:51:03;6.70;99.90
23685;DHT22;12020;51.384;6.908;2023-03-01T12:53:34;6.60;99.90
23685;DHT22;12020;51.384;6.908;2023-03-01T12:56:02;6.60;99.90
23685;DHT22;12020;51.384;6.908;2023-03-01T12:58:35;6.50;99.90
23685;DHT22;12020;51.384;6.908;2023-03-01T13:06:29;6.50;99.90
23685;DHT22;12020;51.384;6.908;2023-03-01T13:11:32;6.60;99.90
23685;DHT22;12020;51.384;6.908;2023-03-01T13:16:41;6.60;99.90
23685;DHT22;12020;51.384;6.908;2023-03-01T13:19:20;6.60;99.90
23685;DHT22;12020;51.384;6.908;2023-03-01T13:21:47;6.60;99.90
23685;DHT22;12020;51.384;6.908;2023-03-01T13:27:10;6.60;99.90
23685;DHT22;12020;51.384;6.908;2023-03-01T13:29:52;6.60;99.90
23685;DHT22;12020;51.384;6.908;2023-03-01T13:32:39;6.50;99.90
23685;DHT22;12020;51.384;6.908;2023-03-01T13:37:40;6.50;99.90
23685;DHT22;12020;51.384;6.908;2023-03-01T13:42:45;6.60;99.90
23685;DHT22;12020;51.384;6.908;2023-03-01T13:47:46;6.40;99.90
23685;DHT22;12020;51.384;6.908;2023-03-01T13:50:21;6.40;99.90
23685;DHT22;12020;51.384;6.908;2023-03-01T13:52:49;6.40;99.90
23685;DHT22;12020;51.384;6.908;2023-03-01T13:55:20;6.30;99.90
23685;DHT22;12020;51.384;6.908;2023-03-01T13:58:15;6.30;99.90
23685;DHT22;12020;51.384;6.908;2023-03-01T14:00:36;6.30;99.90
23685;DHT22;12020;51.384;6.908;2023-03-01T14:03:08;6.30;99.90
23685;DHT22;12020;51.384;6.908;2023-03-01T14:05:35;6.40;99.90
23685;DHT22;12020;51.384;6.908;2023-03-01T14:08:05;6.40;99.90
23685;DHT22;12020;51.384;6.908;2023-03-01T14:10:49;6.40;99.90
23685;DHT22;12020;51.384;6.908;2023-03-01T14:16:16;6.40;99.90
23685;DHT22;12020;51.384;6.908;2023-03-01T14:19:15;6.40;99.90
23685;DHT22;12020;51.384;6.908;2023-03-01T14:21:46;6.50;99.90
23685;DHT22;12020;51.384;6.908;2023-03-01T14:24:21;6.50;99.90
23685;DHT22;12020;51.384;6.908;2023-03-01T14:26:49;6.50;99.90
23685;DHT22;12020;51.384;6.908;2023-03-01T14:29:35;6.50;99.90
23685;DHT22;12020;51.384;6.908;2023-03-01T14:32:12;6.50;99.90
23685;DHT22;12020;51.384;6.908;2023-03-01T14:34:46;6.50;99.90
23685;DHT22;12020;51.384;6.908;2023-03-01T14:39:56;6.50;99.90
23685;DHT22;12020;51.384;6.908;2023-03-01T14:42:24;6.50;99.90
23685;DHT22;12020;51.384;6.908;2023-03-01T14:44:54;6.50;99.90
23685;DHT22;12020;51.384;6.908;2023-03-01T14:47:30;6.50;99.90
23685;DHT22;12020;51.384;6.908;2023-03-01T14:49:59;6.50;99.90
23685;DHT22;12020;51.384;6.908;2023-03-01T14:52:38;6.50;99.90
23685;DHT22;12020;51.384;6.908;2023-03-01T14:55:25;6.50;99.90
23685;DHT22;12020;51.384;6.908;2023-03-01T14:57:52;6.50;99.90
23685;DHT22;12020;51.384;6.908;2023-03-01T15:00:21;6.50;99.90
23685;DHT22;12020;51.384;6.908;2023-03-01T15:02:49;6.50;99.90
23685;DHT22;12020;51.384;6.908;2023-03-01T15:05:24;6.50;99.90
23685;DHT22;12020;51.384;6.908;2023-03-01T15:07:51;6.50;99.90
23685;DHT22;12020;51.384;6.908;2023-03-01T15:10:21;6.50;99.90
23685;DHT22;12020;51.384;6.908;2023-03-01T15:12:49;6.50;99.90
23685;DHT22;12020;51.384;6.908;2023-03-01T15:18:03;6.50;99.90
23685;DHT22;12020;51.384;6.908;2023-03-01T15:20:30;6.50;99.90
23685;DHT22;12020;51.384;6.908;2023-03-01T15:23:03;6.50;99.90
23685;DHT22;12020;51.384;6.908;2023-03-01T15:25:31;6.50;99.90
23685;DHT22;12020;51.384;6.908;2023-03-01T15:28:00;6.60;99.90
23685;DHT22;12020;51.384;6.908;2023-03-01T15:30:34;6.50;99.90
23685;DHT22;12020;51.384;6.908;2023-03-01T15:35:54;6.60;99.90
23685;DHT22;12020;51.384;6.908;2023-03-01T15:38:54;6.60;99.90
23685;DHT22;12020;51.384;6.908;2023-03-01T15:41:32;6.60;99.90
23685;DHT22;12020;51.384;6.908;2023-03-01T15:44:03;6.50;99.90
23685;DHT22;12020;51.384;6.908;2023-03-01T15:46:46;6.50;99.90
23685;DHT22;12020;51.384;6.908;2023-03-01T15:49:39;6.50;99.90
23685;DHT22;12020;51.384;6.908;2023-03-01T15:52:12;6.50;99.90
23685;DHT22;12020;51.384;6.908;2023-03-01T15:54:39;6.50;99.90
23685;DHT22;12020;51.384;6.908;2023-03-01T15:57:13;6.50;99.90
23685;DHT22;12020;51.384;6.908;2023-03-01T15:59:40;6.40;99.90
23685;DHT22;12020;51.384;6.908;2023-03-01T16:02:11;6.40;99.90
23685;DHT22;12020;51.384;6.908;2023-03-01T16:04:38;6.40;99.90
23685;DHT22;12020;51.384;6.908;2023-03-01T16:07:04;6.50;99.90
23685;DHT22;12020;51.384;6.908;2023-03-01T16:09:31;6.30;99.90
23685;DHT22;12020;51.384;6.908;2023-03-01T16:11:57;6.40;99.90
23685;DHT22;12020;51.384;6.908;2023-03-01T16:14:23;6.30;99.90
23685;DHT22;12020;51.384;6.908;2023-03-01T16:16:48;6.30;99.90
23685;DHT22;12020;51.384;6.908;2023-03-01T16:19:15;6.30;99.90
23685;DHT22;12020;51.384;6.908;2023-03-01T16:21:41;6.30;99.90
23685;DHT22;12020;51.384;6.908;2023-03-01T16:24:08;6.30;99.90
23685;DHT22;12020;51.384;6.908;2023-03-01T16:26:35;6.30;99.90
23685;DHT22;12020;51.384;6.908;2023-03-01T16:29:01;6.20;99.90
23685;DHT22;12020;51.384;6.908;2023-03-01T16:31:27;6.20;99.90
23685;DHT22;12020;51.384;6.908;2023-03-01T16:33:55;6.20;99.90
23685;DHT22;12020;51.384;6.908;2023-03-01T16:36:21;6.20;99.90
23685;DHT22;12020;51.384;6.908;2023-03-01T16:38:53;6.10;99.90
23685;DHT22;12020;51.384;6.908;2023-03-01T16:41:21;6.10;99.90
23685;DHT22;12020;51.384;6.908;2023-03-01T16:43:47;6.10;99.90
23685;DHT22;12020;51.384;6.908;2023-03-01T16:46:16;6.00;99.90
23685;DHT22;12020;51.384;6.908;2023-03-01T16:48:42;6.00;99.90
23685;DHT22;12020;51.384;6.908;2023-03-01T16:51:08;5.90;99.90
23685;DHT22;12020;51.384;6.908;2023-03-01T16:53:35;5.90;99.90
23685;DHT22;12020;51.384;6.908;2023-03-01T16:56:07;5.90;99.90
23685;DHT22;12020;51.384;6.908;2023-03-01T16:58:35;5.80;99.90
23685;DHT22;12020;51.384;6.908;2023-03-01T17:01:04;5.80;99.90
23685;DHT22;12020;51.384;6.908;2023-03-01T17:03:30;5.70;99.90
23685;DHT22;12020;51.384;6.908;2023-03-01T17:05:56;5.70;99.90
23685;DHT22;12020;51.384;6.908;2023-03-01T17:08:22;5.60;99.90
23685;DHT22;12020;51.384;6.908;2023-03-01T17:10:47;5.60;99.90
23685;DHT22;12020;51.384;6.908;2023-03-01T17:13:13;5.60;99.90
23685;DHT22;12020;51.384;6.908;2023-03-01T17:15:40;5.60;99.90
23685;DHT22;12020;51.384;6.908;2023-03-01T17:18:06;5.50;99.90
23685;DHT22;12020;51.384;6.908;2023-03-01T17:20:32;5.60;99.90
23685;DHT22;12020;51.384;6.908;2023-03-01T17:22:58;5.50;99.90
23685;DHT22;12020;51.384;6.908;2023-03-01T17:25:24;5.40;99.90
23685;DHT22;12020;51.384;6.908;2023-03-01T17:27:49;5.40;99.90
23685;DHT22;12020;51.384;6.908;2023-03-01T17:30:15;5.40;99.90
23685;DHT22;12020;51.384;6.908;2023-03-01T17:32:41;5.30;99.90
23685;DHT22;12020;51.384;6.908;2023-03-01T17:35:07;5.30;99.90
23685;DHT22;12020;51.384;6.908;2023-03-01T17:37:35;5.20;99.90
23685;DHT22;12020;51.384;6.908;2023-03-01T17:40:04;5.20;99.90
23685;DHT22;12020;51.384;6.908;2023-03-01T17:42:30;5.10;99.90
23685;DHT22;12020;51.384;6.908;2023-03-01T17:45:00;5.00;99.90
23685;DHT22;12020;51.384;6.908;2023-03-01T17:47:26;5.00;99.90
23685;DHT22;12020;51.384;6.908;2023-03-01T17:49:53;4.90;99.90
23685;DHT22;12020;51.384;6.908;2023-03-01T17:52:20;4.90;99.90